sensor_id;sensor_type;location;lat;lon;timestamp;P1;durP1;ratioP1;P2;durP2;ratioP2
31390;SDS011;18022;45.492;11.548;2022-10-16T00:00:43;67.13;;;39.05;;
31390;SDS011;18022;45.492;11.548;2022-10-16T00:03:09;78.15;;;42.58;;
31390;SDS011;18022;45.492;11.548;2022-10-16T00:05:39;72.88;;;38.88;;
31390;SDS011;18022;45.492;11.548;2022-10-16T00:08:07;70.68;;;40.30;;
31390;SDS011;18022;45.492;11.548;2022-10-16T00:10:34;71.65;;;39.17;;
31390;SDS011;18022;45.492;11.548;2022-10-16T00:13:00;74.45;;;41.33;;
31390;SDS011;18022;45.492;11.548;2022-10-16T00:15:26;70.65;;;40.47;;
31390;SDS011;18022;45.492;11.548;2022-10-16T00:17:52;70.57;;;39.83;;
31390;SDS011;18022;45.492;11.548;2022-10-16T00:20:17;69.65;;;39.47;;
31390;SDS011;18022;45.492;11.548;2022-10-16T00:22:43;73.57;;;40.05;;
31390;SDS011;18022;45.492;11.548;2022-10-16T00:25:09;69.40;;;38.20;;
31390;SDS011;18022;45.492;11.548;2022-10-16T00:27:34;66.65;;;38.95;;
31390;SDS011;18022;45.492;11.548;2022-10-16T00:30:00;68.50;;;39.22;;
31390;SDS011;18022;45.492;11.548;2022-10-16T00:32:26;73.40;;;40.17;;
31390;SDS011;18022;45.492;11.548;2022-10-16T00:34:52;75.22;;;40.55;;
31390;SDS011;18022;45.492;11.548;2022-10-16T00:37:20;67.93;;;38.83;;
31390;SDS011;18022;45.492;11.548;2022-10-16T00:39:45;67.57;;;39.53;;
31390;SDS011;18022;45.492;11.548;2022-10-16T00:42:15;74.97;;;39.33;;
31390;SDS011;18022;45.492;11.548;2022-10-16T00:47:29;70.82;;;37.55;;
31390;SDS011;18022;45.492;11.548;2022-10-16T00:50:06;68.97;;;38.60;;
31390;SDS011;18022;45.492;11.548;2022-10-16T00:52:36;66.07;;;36.08;;
31390;SDS011;18022;45.492;11.548;2022-10-16T00:55:04;70.32;;;37.55;;
31390;SDS011;18022;45.492;11.548;2022-10-16T00:57:31;72.57;;;38.83;;
31390;SDS011;18022;45.492;11.548;2022-10-16T00:59:57;73.22;;;39.53;;
31390;SDS011;18022;45.492;11.548;2022-10-16T01:02:23;74.57;;;39.17;;
31390;SDS011;18022;45.492;11.548;2022-10-16T01:04:51;68.43;;;38.83;;
31390;SDS011;18022;45.492;11.548;2022-10-16T01:15:41;70.30;;;37.38;;
31390;SDS011;18022;45.492;11.548;2022-10-16T01:18:16;68.18;;;38.38;;
31390;SDS011;18022;45.492;11.548;2022-10-16T01:20:44;73.90;;;39.33;;
31390;SDS011;18022;45.492;11.548;2022-10-16T01:31:10;64.28;;;36.78;;
31390;SDS011;18022;45.492;11.548;2022-10-16T01:33:42;67.30;;;37.40;;
31390;SDS011;18022;45.492;11.548;2022-10-16T01:36:15;67.03;;;37.97;;
31390;SDS011;18022;45.492;11.548;2022-10-16T01:38:52;64.18;;;35.92;;
31390;SDS011;18022;45.492;11.548;2022-10-16T01:46:24;70.88;;;37.33;;
31390;SDS011;18022;45.492;11.548;2022-10-16T01:48:52;65.03;;;35.90;;
31390;SDS011;18022;45.492;11.548;2022-10-16T01:51:19;63.47;;;36.38;;
31390;SDS011;18022;45.492;11.548;2022-10-16T01:53:49;66.97;;;37.42;;
31390;SDS011;18022;45.492;11.548;2022-10-16T01:56:19;71.43;;;36.33;;
31390;SDS011;18022;45.492;11.548;2022-10-16T01:59:07;67.22;;;36.92;;
31390;SDS011;18022;45.492;11.548;2022-10-16T02:01:37;66.28;;;37.90;;
31390;SDS011;18022;45.492;11.548;2022-10-16T02:04:13;66.35;;;37.17;;
31390;SDS011;18022;45.492;11.548;2022-10-16T02:06:43;68.40;;;37.47;;
31390;SDS011;18022;45.492;11.548;2022-10-16T02:09:09;70.00;;;40.05;;
31390;SDS011;18022;45.492;11.548;2022-10-16T02:11:35;73.30;;;40.33;;
31390;SDS011;18022;45.492;11.548;2022-10-16T02:14:04;70.85;;;38.42;;
31390;SDS011;18022;45.492;11.548;2022-10-16T02:16:35;72.32;;;40.95;;
31390;SDS011;18022;45.492;11.548;2022-10-16T02:19:05;75.18;;;39.85;;
31390;SDS011;18022;45.492;11.548;2022-10-16T02:21:54;67.45;;;39.40;;
31390;SDS011;18022;45.492;11.548;2022-10-16T02:25:01;68.63;;;39.35;;
31390;SDS011;18022;45.492;11.548;2022-10-16T02:32:55;67.70;;;38.90;;
31390;SDS011;18022;45.492;11.548;2022-10-16T02:35:23;65.57;;;39.97;;
31390;SDS011;18022;45.492;11.548;2022-10-16T02:37:50;69.68;;;39.90;;
31390;SDS011;18022;45.492;11.548;2022-10-16T02:40:17;73.35;;;40.42;;
31390;SDS011;18022;45.492;11.548;2022-10-16T02:42:43;66.28;;;38.42;;
31390;SDS011;18022;45.492;11.548;2022-10-16T02:45:09;65.95;;;37.38;;
31390;SDS011;18022;45.492;11.548;2022-10-16T02:47:36;73.15;;;38.42;;
31390;SDS011;18022;45.492;11.548;2022-10-16T02:50:01;67.75;;;37.75;;
31390;SDS011;18022;45.492;11.548;2022-10-16T02:52:28;72.85;;;38.25;;
31390;SDS011;18022;45.492;11.548;2022-10-16T02:54:53;71.22;;;39.30;;
31390;SDS011;18022;45.492;11.548;2022-10-16T02:57:19;63.85;;;38.20;;
31390;SDS011;18022;45.492;11.548;2022-10-16T02:59:45;69.45;;;37.67;;
31390;SDS011;18022;45.492;11.548;2022-10-16T03:02:11;69.15;;;39.47;;
31390;SDS011;18022;45.492;11.548;2022-10-16T03:04:37;68.78;;;39.13;;
31390;SDS011;18022;45.492;11.548;2022-10-16T03:07:03;71.10;;;39.60;;
31390;SDS011;18022;45.492;11.548;2022-10-16T03:09:29;66.70;;;37.75;;
31390;SDS011;18022;45.492;11.548;2022-10-16T03:11:54;65.82;;;38.25;;
31390;SDS011;18022;45.492;11.548;2022-10-16T03:14:20;63.28;;;36.92;;
31390;SDS011;18022;45.492;11.548;2022-10-16T03:16:46;65.97;;;36.42;;
31390;SDS011;18022;45.492;11.548;2022-10-16T03:19:12;68.32;;;38.53;;
31390;SDS011;18022;45.492;11.548;2022-10-16T03:21:37;67.75;;;38.28;;
31390;SDS011;18022;45.492;11.548;2022-10-16T03:24:03;69.88;;;38.78;;
31390;SDS011;18022;45.492;11.548;2022-10-16T03:26:29;74.07;;;41.13;;
31390;SDS011;18022;45.492;11.548;2022-10-16T03:28:55;78.30;;;41.40;;
31390;SDS011;18022;45.492;11.548;2022-10-16T03:31:20;70.35;;;39.78;;
31390;SDS011;18022;45.492;11.548;2022-10-16T03:33:47;73.03;;;40.00;;
31390;SDS011;18022;45.492;11.548;2022-10-16T03:36:12;71.28;;;40.67;;
31390;SDS011;18022;45.492;11.548;2022-10-16T03:38:38;71.47;;;39.03;;
31390;SDS011;18022;45.492;11.548;2022-10-16T03:41:04;64.85;;;37.95;;
31390;SDS011;18022;45.492;11.548;2022-10-16T03:43:29;61.05;;;37.03;;
31390;SDS011;18022;45.492;11.548;2022-10-16T03:45:55;67.25;;;38.28;;
31390;SDS011;18022;45.492;11.548;2022-10-16T03:48:21;69.22;;;39.15;;
31390;SDS011;18022;45.492;11.548;2022-10-16T03:50:46;64.10;;;37.70;;
31390;SDS011;18022;45.492;11.548;2022-10-16T03:53:13;68.35;;;38.75;;
31390;SDS011;18022;45.492;11.548;2022-10-16T03:55:41;63.20;;;37.33;;
31390;SDS011;18022;45.492;11.548;2022-10-16T04:00:33;67.05;;;37.55;;
31390;SDS011;18022;45.492;11.548;2022-10-16T04:02:59;71.38;;;38.40;;
31390;SDS011;18022;45.492;11.548;2022-10-16T04:05:25;66.78;;;36.88;;
31390;SDS011;18022;45.492;11.548;2022-10-16T04:07:51;69.07;;;38.30;;
31390;SDS011;18022;45.492;11.548;2022-10-16T04:10:17;64.43;;;37.85;;
31390;SDS011;18022;45.492;11.548;2022-10-16T04:12:44;68.28;;;39.45;;
31390;SDS011;18022;45.492;11.548;2022-10-16T04:15:09;67.97;;;39.13;;
31390;SDS011;18022;45.492;11.548;2022-10-16T04:17:35;69.63;;;38.95;;
31390;SDS011;18022;45.492;11.548;2022-10-16T04:20:01;66.93;;;38.97;;
31390;SDS011;18022;45.492;11.548;2022-10-16T04:22:27;66.85;;;38.60;;
31390;SDS011;18022;45.492;11.548;2022-10-16T04:24:53;68.60;;;39.70;;
31390;SDS011;18022;45.492;11.548;2022-10-16T04:27:18;76.95;;;40.35;;
31390;SDS011;18022;45.492;11.548;2022-10-16T04:29:44;70.82;;;37.28;;
31390;SDS011;18022;45.492;11.548;2022-10-16T04:32:09;70.40;;;40.13;;
31390;SDS011;18022;45.492;11.548;2022-10-16T04:34:35;73.05;;;39.45;;
31390;SDS011;18022;45.492;11.548;2022-10-16T04:37:03;65.60;;;36.60;;
31390;SDS011;18022;45.492;11.548;2022-10-16T04:39:28;51.35;;;32.42;;
31390;SDS011;18022;45.492;11.548;2022-10-16T04:41:54;66.75;;;36.42;;
31390;SDS011;18022;45.492;11.548;2022-10-16T04:44:19;48.90;;;30.00;;
31390;SDS011;18022;45.492;11.548;2022-10-16T04:46:45;59.88;;;34.33;;
31390;SDS011;18022;45.492;11.548;2022-10-16T04:49:11;53.55;;;33.40;;
31390;SDS011;18022;45.492;11.548;2022-10-16T04:51:36;56.28;;;32.95;;
31390;SDS011;18022;45.492;11.548;2022-10-16T04:54:02;63.60;;;36.05;;
31390;SDS011;18022;45.492;11.548;2022-10-16T04:56:28;68.68;;;37.50;;
31390;SDS011;18022;45.492;11.548;2022-10-16T04:58:53;63.92;;;37.55;;
31390;SDS011;18022;45.492;11.548;2022-10-16T05:01:19;58.25;;;34.55;;
31390;SDS011;18022;45.492;11.548;2022-10-16T05:03:45;68.57;;;37.90;;
31390;SDS011;18022;45.492;11.548;2022-10-16T05:06:10;75.88;;;39.70;;
31390;SDS011;18022;45.492;11.548;2022-10-16T05:08:36;72.22;;;41.28;;
31390;SDS011;18022;45.492;11.548;2022-10-16T05:11:02;78.15;;;40.65;;
31390;SDS011;18022;45.492;11.548;2022-10-16T05:13:28;70.78;;;39.78;;
31390;SDS011;18022;45.492;11.548;2022-10-16T05:15:54;55.28;;;34.42;;
31390;SDS011;18022;45.492;11.548;2022-10-16T05:18:20;51.10;;;31.35;;
31390;SDS011;18022;45.492;11.548;2022-10-16T05:20:45;57.15;;;33.85;;
31390;SDS011;18022;45.492;11.548;2022-10-16T05:23:11;61.03;;;35.40;;
31390;SDS011;18022;45.492;11.548;2022-10-16T05:25:37;66.13;;;37.90;;
31390;SDS011;18022;45.492;11.548;2022-10-16T05:28:03;70.63;;;39.42;;
31390;SDS011;18022;45.492;11.548;2022-10-16T05:30:29;55.80;;;33.95;;
31390;SDS011;18022;45.492;11.548;2022-10-16T05:32:55;48.75;;;29.50;;
31390;SDS011;18022;45.492;11.548;2022-10-16T05:35:20;53.58;;;33.53;;
31390;SDS011;18022;45.492;11.548;2022-10-16T05:37:46;49.58;;;30.75;;
31390;SDS011;18022;45.492;11.548;2022-10-16T05:40:13;52.17;;;30.90;;
31390;SDS011;18022;45.492;11.548;2022-10-16T05:42:39;48.55;;;32.10;;
31390;SDS011;18022;45.492;11.548;2022-10-16T05:45:06;55.35;;;33.53;;
31390;SDS011;18022;45.492;11.548;2022-10-16T05:47:34;61.17;;;35.45;;
31390;SDS011;18022;45.492;11.548;2022-10-16T05:50:00;65.65;;;38.30;;
31390;SDS011;18022;45.492;11.548;2022-10-16T05:52:26;74.60;;;38.00;;
31390;SDS011;18022;45.492;11.548;2022-10-16T05:54:52;74.50;;;40.78;;
31390;SDS011;18022;45.492;11.548;2022-10-16T05:57:18;68.97;;;38.60;;
31390;SDS011;18022;45.492;11.548;2022-10-16T05:59:43;78.60;;;40.30;;
31390;SDS011;18022;45.492;11.548;2022-10-16T06:02:12;70.28;;;39.28;;
31390;SDS011;18022;45.492;11.548;2022-10-16T06:04:39;78.78;;;41.83;;
31390;SDS011;18022;45.492;11.548;2022-10-16T06:07:04;75.70;;;42.25;;
31390;SDS011;18022;45.492;11.548;2022-10-16T06:09:30;75.63;;;42.00;;
31390;SDS011;18022;45.492;11.548;2022-10-16T06:11:56;71.13;;;40.30;;
31390;SDS011;18022;45.492;11.548;2022-10-16T06:14:22;71.13;;;39.95;;
31390;SDS011;18022;45.492;11.548;2022-10-16T06:16:47;64.72;;;37.45;;
31390;SDS011;18022;45.492;11.548;2022-10-16T06:19:13;67.75;;;36.88;;
31390;SDS011;18022;45.492;11.548;2022-10-16T06:21:40;74.22;;;38.10;;
31390;SDS011;18022;45.492;11.548;2022-10-16T06:24:06;69.25;;;38.78;;
31390;SDS011;18022;45.492;11.548;2022-10-16T06:26:32;64.97;;;36.58;;
31390;SDS011;18022;45.492;11.548;2022-10-16T06:28:58;62.03;;;34.75;;
31390;SDS011;18022;45.492;11.548;2022-10-16T06:31:25;68.40;;;37.53;;
31390;SDS011;18022;45.492;11.548;2022-10-16T06:33:54;71.40;;;38.25;;
31390;SDS011;18022;45.492;11.548;2022-10-16T06:36:21;66.13;;;37.83;;
31390;SDS011;18022;45.492;11.548;2022-10-16T06:38:47;68.28;;;40.22;;
31390;SDS011;18022;45.492;11.548;2022-10-16T06:41:14;73.25;;;39.30;;
31390;SDS011;18022;45.492;11.548;2022-10-16T06:43:42;70.95;;;40.50;;
31390;SDS011;18022;45.492;11.548;2022-10-16T06:46:10;70.03;;;40.40;;
31390;SDS011;18022;45.492;11.548;2022-10-16T06:48:37;74.25;;;41.53;;
31390;SDS011;18022;45.492;11.548;2022-10-16T06:51:04;69.90;;;39.33;;
31390;SDS011;18022;45.492;11.548;2022-10-16T06:53:33;73.28;;;39.25;;
31390;SDS011;18022;45.492;11.548;2022-10-16T06:56:10;72.00;;;39.25;;
31390;SDS011;18022;45.492;11.548;2022-10-16T06:58:44;68.05;;;36.53;;
31390;SDS011;18022;45.492;11.548;2022-10-16T07:01:10;67.47;;;36.30;;
31390;SDS011;18022;45.492;11.548;2022-10-16T07:03:37;67.47;;;38.50;;
31390;SDS011;18022;45.492;11.548;2022-10-16T07:06:05;67.47;;;38.25;;
31390;SDS011;18022;45.492;11.548;2022-10-16T07:08:35;75.45;;;39.92;;
31390;SDS011;18022;45.492;11.548;2022-10-16T07:11:03;65.57;;;37.60;;
31390;SDS011;18022;45.492;11.548;2022-10-16T07:13:32;70.40;;;40.10;;
31390;SDS011;18022;45.492;11.548;2022-10-16T07:16:09;72.43;;;39.38;;
31390;SDS011;18022;45.492;11.548;2022-10-16T07:18:37;74.93;;;40.33;;
31390;SDS011;18022;45.492;11.548;2022-10-16T07:21:09;70.68;;;40.25;;
31390;SDS011;18022;45.492;11.548;2022-10-16T07:23:37;77.50;;;41.67;;
31390;SDS011;18022;45.492;11.548;2022-10-16T07:26:04;72.63;;;39.05;;
31390;SDS011;18022;45.492;11.548;2022-10-16T07:28:31;76.27;;;42.13;;
31390;SDS011;18022;45.492;11.548;2022-10-16T07:31:04;82.00;;;42.28;;
31390;SDS011;18022;45.492;11.548;2022-10-16T07:33:32;75.80;;;42.50;;
31390;SDS011;18022;45.492;11.548;2022-10-16T07:35:58;78.82;;;43.13;;
31390;SDS011;18022;45.492;11.548;2022-10-16T07:38:24;74.25;;;43.08;;
31390;SDS011;18022;45.492;11.548;2022-10-16T07:41:00;75.13;;;42.00;;
31390;SDS011;18022;45.492;11.548;2022-10-16T07:43:30;75.60;;;42.90;;
31390;SDS011;18022;45.492;11.548;2022-10-16T07:45:56;82.00;;;45.67;;
31390;SDS011;18022;45.492;11.548;2022-10-16T07:48:22;81.82;;;44.60;;
31390;SDS011;18022;45.492;11.548;2022-10-16T07:50:49;78.55;;;45.22;;
31390;SDS011;18022;45.492;11.548;2022-10-16T07:53:15;75.40;;;46.80;;
31390;SDS011;18022;45.492;11.548;2022-10-16T07:55:41;77.05;;;46.00;;
31390;SDS011;18022;45.492;11.548;2022-10-16T07:58:06;77.57;;;45.63;;
31390;SDS011;18022;45.492;11.548;2022-10-16T08:00:32;76.70;;;44.97;;
31390;SDS011;18022;45.492;11.548;2022-10-16T08:02:59;82.47;;;46.97;;
31390;SDS011;18022;45.492;11.548;2022-10-16T08:05:28;77.25;;;43.92;;
31390;SDS011;18022;45.492;11.548;2022-10-16T08:07:56;78.57;;;46.17;;
31390;SDS011;18022;45.492;11.548;2022-10-16T08:10:23;81.47;;;46.80;;
31390;SDS011;18022;45.492;11.548;2022-10-16T08:12:51;57.17;;;34.72;;
31390;SDS011;18022;45.492;11.548;2022-10-16T08:15:18;81.72;;;45.90;;
31390;SDS011;18022;45.492;11.548;2022-10-16T08:17:44;81.07;;;44.75;;
31390;SDS011;18022;45.492;11.548;2022-10-16T08:20:19;77.95;;;46.05;;
31390;SDS011;18022;45.492;11.548;2022-10-16T08:22:44;81.13;;;47.20;;
31390;SDS011;18022;45.492;11.548;2022-10-16T08:25:10;81.82;;;46.58;;
31390;SDS011;18022;45.492;11.548;2022-10-16T08:27:35;78.20;;;46.78;;
31390;SDS011;18022;45.492;11.548;2022-10-16T08:30:01;74.95;;;43.00;;
31390;SDS011;18022;45.492;11.548;2022-10-16T08:32:27;78.20;;;46.45;;
31390;SDS011;18022;45.492;11.548;2022-10-16T08:34:53;80.82;;;46.70;;
31390;SDS011;18022;45.492;11.548;2022-10-16T08:37:18;82.07;;;46.17;;
31390;SDS011;18022;45.492;11.548;2022-10-16T08:39:44;82.30;;;45.30;;
31390;SDS011;18022;45.492;11.548;2022-10-16T08:45:00;79.03;;;46.42;;
31390;SDS011;18022;45.492;11.548;2022-10-16T08:47:22;78.68;;;46.13;;
31390;SDS011;18022;45.492;11.548;2022-10-16T08:49:54;78.65;;;46.88;;
31390;SDS011;18022;45.492;11.548;2022-10-16T08:52:34;79.95;;;45.85;;
31390;SDS011;18022;45.492;11.548;2022-10-16T08:55:03;81.13;;;45.67;;
31390;SDS011;18022;45.492;11.548;2022-10-16T08:57:30;81.80;;;45.20;;
31390;SDS011;18022;45.492;11.548;2022-10-16T09:00:04;75.93;;;46.20;;
31390;SDS011;18022;45.492;11.548;2022-10-16T09:02:38;81.15;;;47.20;;
31390;SDS011;18022;45.492;11.548;2022-10-16T09:15:38;85.22;;;45.33;;
31390;SDS011;18022;45.492;11.548;2022-10-16T09:23:43;82.15;;;46.08;;
31390;SDS011;18022;45.492;11.548;2022-10-16T09:26:11;80.75;;;47.08;;
31390;SDS011;18022;45.492;11.548;2022-10-16T09:28:39;81.15;;;45.03;;
31390;SDS011;18022;45.492;11.548;2022-10-16T09:31:05;78.13;;;43.63;;
31390;SDS011;18022;45.492;11.548;2022-10-16T09:33:36;81.75;;;44.45;;
31390;SDS011;18022;45.492;11.548;2022-10-16T09:36:04;75.03;;;43.35;;
31390;SDS011;18022;45.492;11.548;2022-10-16T09:38:32;74.90;;;42.78;;
31390;SDS011;18022;45.492;11.548;2022-10-16T09:41:13;73.90;;;42.28;;
31390;SDS011;18022;45.492;11.548;2022-10-16T09:46:35;78.43;;;42.38;;
31390;SDS011;18022;45.492;11.548;2022-10-16T09:49:03;66.13;;;40.47;;
31390;SDS011;18022;45.492;11.548;2022-10-16T09:51:44;74.35;;;42.15;;
31390;SDS011;18022;45.492;11.548;2022-10-16T09:54:14;71.35;;;41.90;;
31390;SDS011;18022;45.492;11.548;2022-10-16T09:56:44;66.97;;;40.42;;
31390;SDS011;18022;45.492;11.548;2022-10-16T09:59:21;67.10;;;39.88;;
31390;SDS011;18022;45.492;11.548;2022-10-16T10:01:54;70.32;;;38.55;;
31390;SDS011;18022;45.492;11.548;2022-10-16T10:04:21;68.45;;;38.58;;
31390;SDS011;18022;45.492;11.548;2022-10-16T10:06:49;65.25;;;37.75;;
31390;SDS011;18022;45.492;11.548;2022-10-16T10:09:26;66.28;;;38.05;;
31390;SDS011;18022;45.492;11.548;2022-10-16T10:11:54;63.17;;;38.72;;
31390;SDS011;18022;45.492;11.548;2022-10-16T10:19:36;67.50;;;39.58;;
31390;SDS011;18022;45.492;11.548;2022-10-16T10:24:56;65.45;;;38.35;;
31390;SDS011;18022;45.492;11.548;2022-10-16T10:27:52;60.72;;;37.33;;
31390;SDS011;18022;45.492;11.548;2022-10-16T10:38:58;65.38;;;39.55;;
31390;SDS011;18022;45.492;11.548;2022-10-16T10:41:44;61.30;;;37.50;;
31390;SDS011;18022;45.492;11.548;2022-10-16T10:52:43;64.13;;;38.03;;
31390;SDS011;18022;45.492;11.548;2022-10-16T10:58:19;60.10;;;33.88;;
31390;SDS011;18022;45.492;11.548;2022-10-16T11:01:12;55.83;;;34.70;;
31390;SDS011;18022;45.492;11.548;2022-10-16T11:04:16;54.58;;;35.05;;
31390;SDS011;18022;45.492;11.548;2022-10-16T11:06:55;54.97;;;33.85;;
31390;SDS011;18022;45.492;11.548;2022-10-16T11:09:31;58.03;;;34.38;;
31390;SDS011;18022;45.492;11.548;2022-10-16T11:12:21;59.17;;;35.33;;
31390;SDS011;18022;45.492;11.548;2022-10-16T11:15:02;60.03;;;36.00;;
31390;SDS011;18022;45.492;11.548;2022-10-16T11:17:39;55.08;;;34.53;;
31390;SDS011;18022;45.492;11.548;2022-10-16T11:20:20;52.83;;;32.95;;
31390;SDS011;18022;45.492;11.548;2022-10-16T11:25:46;52.78;;;33.45;;
31390;SDS011;18022;45.492;11.548;2022-10-16T11:30:59;57.70;;;35.03;;
31390;SDS011;18022;45.492;11.548;2022-10-16T11:33:46;52.75;;;34.58;;
31390;SDS011;18022;45.492;11.548;2022-10-16T11:36:21;57.63;;;34.92;;
31390;SDS011;18022;45.492;11.548;2022-10-16T11:41:54;58.00;;;33.22;;
31390;SDS011;18022;45.492;11.548;2022-10-16T11:47:26;54.03;;;33.90;;
31390;SDS011;18022;45.492;11.548;2022-10-16T11:50:06;48.20;;;31.90;;
31390;SDS011;18022;45.492;11.548;2022-10-16T11:52:44;53.47;;;33.40;;
31390;SDS011;18022;45.492;11.548;2022-10-16T11:55:39;51.88;;;33.83;;
31390;SDS011;18022;45.492;11.548;2022-10-16T11:58:16;53.30;;;32.75;;
31390;SDS011;18022;45.492;11.548;2022-10-16T12:08:58;48.25;;;30.10;;
31390;SDS011;18022;45.492;11.548;2022-10-16T12:17:00;46.40;;;30.40;;
31390;SDS011;18022;45.492;11.548;2022-10-16T12:19:30;52.60;;;31.38;;
31390;SDS011;18022;45.492;11.548;2022-10-16T12:21:58;50.03;;;30.83;;
31390;SDS011;18022;45.492;11.548;2022-10-16T12:24:34;46.42;;;30.63;;
31390;SDS011;18022;45.492;11.548;2022-10-16T12:27:03;49.65;;;31.92;;
31390;SDS011;18022;45.492;11.548;2022-10-16T12:29:46;47.38;;;29.83;;
31390;SDS011;18022;45.492;11.548;2022-10-16T12:32:27;50.60;;;30.35;;
31390;SDS011;18022;45.492;11.548;2022-10-16T12:34:53;51.35;;;30.63;;
31390;SDS011;18022;45.492;11.548;2022-10-16T12:37:20;48.53;;;31.25;;
31390;SDS011;18022;45.492;11.548;2022-10-16T12:39:49;45.05;;;30.23;;
31390;SDS011;18022;45.492;11.548;2022-10-16T12:44:47;43.38;;;27.90;;
31390;SDS011;18022;45.492;11.548;2022-10-16T12:47:19;45.72;;;28.85;;
31390;SDS011;18022;45.492;11.548;2022-10-16T12:49:51;40.58;;;28.20;;
31390;SDS011;18022;45.492;11.548;2022-10-16T12:55:01;46.00;;;28.42;;
31390;SDS011;18022;45.492;11.548;2022-10-16T12:57:47;46.80;;;29.38;;
31390;SDS011;18022;45.492;11.548;2022-10-16T13:11:11;45.40;;;28.80;;
31390;SDS011;18022;45.492;11.548;2022-10-16T13:21:50;49.72;;;29.17;;
31390;SDS011;18022;45.492;11.548;2022-10-16T13:24:42;44.65;;;28.80;;
31390;SDS011;18022;45.492;11.548;2022-10-16T13:30:25;42.25;;;27.50;;
31390;SDS011;18022;45.492;11.548;2022-10-16T13:32:57;45.35;;;29.15;;
31390;SDS011;18022;45.492;11.548;2022-10-16T13:35:25;41.78;;;28.48;;
31390;SDS011;18022;45.492;11.548;2022-10-16T13:38:13;43.77;;;26.33;;
31390;SDS011;18022;45.492;11.548;2022-10-16T13:43:40;43.15;;;28.17;;
31390;SDS011;18022;45.492;11.548;2022-10-16T13:46:22;41.88;;;27.23;;
31390;SDS011;18022;45.492;11.548;2022-10-16T13:48:58;43.40;;;27.95;;
31390;SDS011;18022;45.492;11.548;2022-10-16T13:51:36;43.40;;;28.15;;
31390;SDS011;18022;45.492;11.548;2022-10-16T13:54:02;54.67;;;30.30;;
31390;SDS011;18022;45.492;11.548;2022-10-16T13:56:29;42.70;;;28.38;;
31390;SDS011;18022;45.492;11.548;2022-10-16T14:01:47;47.53;;;29.30;;
31390;SDS011;18022;45.492;11.548;2022-10-16T14:04:16;45.25;;;29.17;;
31390;SDS011;18022;45.492;11.548;2022-10-16T14:06:43;45.20;;;28.60;;
31390;SDS011;18022;45.492;11.548;2022-10-16T14:11:55;44.45;;;30.35;;
31390;SDS011;18022;45.492;11.548;2022-10-16T14:14:22;42.72;;;27.95;;
31390;SDS011;18022;45.492;11.548;2022-10-16T14:16:48;48.70;;;28.65;;
31390;SDS011;18022;45.492;11.548;2022-10-16T14:19:21;42.58;;;27.73;;
31390;SDS011;18022;45.492;11.548;2022-10-16T14:21:52;46.72;;;30.67;;
31390;SDS011;18022;45.492;11.548;2022-10-16T14:24:26;53.38;;;30.42;;
31390;SDS011;18022;45.492;11.548;2022-10-16T14:26:56;40.45;;;27.92;;
31390;SDS011;18022;45.492;11.548;2022-10-16T14:29:23;44.93;;;28.53;;
31390;SDS011;18022;45.492;11.548;2022-10-16T14:32:20;45.10;;;28.65;;
31390;SDS011;18022;45.492;11.548;2022-10-16T14:34:52;45.47;;;30.42;;
31390;SDS011;18022;45.492;11.548;2022-10-16T14:37:26;43.10;;;29.10;;
31390;SDS011;18022;45.492;11.548;2022-10-16T14:39:54;41.85;;;27.35;;
31390;SDS011;18022;45.492;11.548;2022-10-16T14:42:21;44.75;;;29.02;;
31390;SDS011;18022;45.492;11.548;2022-10-16T14:44:50;47.15;;;30.30;;
31390;SDS011;18022;45.492;11.548;2022-10-16T14:47:18;46.53;;;30.05;;
31390;SDS011;18022;45.492;11.548;2022-10-16T14:49:49;45.63;;;29.85;;
31390;SDS011;18022;45.492;11.548;2022-10-16T14:52:15;46.22;;;30.13;;
31390;SDS011;18022;45.492;11.548;2022-10-16T14:54:41;47.53;;;29.02;;
31390;SDS011;18022;45.492;11.548;2022-10-16T14:57:17;51.38;;;30.55;;
31390;SDS011;18022;45.492;11.548;2022-10-16T14:59:45;50.92;;;30.73;;
31390;SDS011;18022;45.492;11.548;2022-10-16T15:04:47;45.55;;;29.05;;
31390;SDS011;18022;45.492;11.548;2022-10-16T15:07:14;45.13;;;29.35;;
31390;SDS011;18022;45.492;11.548;2022-10-16T15:09:39;42.75;;;29.25;;
31390;SDS011;18022;45.492;11.548;2022-10-16T15:12:05;44.05;;;29.88;;
31390;SDS011;18022;45.492;11.548;2022-10-16T15:14:31;40.95;;;28.10;;
31390;SDS011;18022;45.492;11.548;2022-10-16T15:16:57;44.08;;;28.67;;
31390;SDS011;18022;45.492;11.548;2022-10-16T15:19:23;43.35;;;28.27;;
31390;SDS011;18022;45.492;11.548;2022-10-16T15:21:49;44.95;;;27.75;;
31390;SDS011;18022;45.492;11.548;2022-10-16T15:24:14;41.47;;;26.55;;
31390;SDS011;18022;45.492;11.548;2022-10-16T15:26:40;48.10;;;28.88;;
31390;SDS011;18022;45.492;11.548;2022-10-16T15:29:06;45.25;;;28.73;;
31390;SDS011;18022;45.492;11.548;2022-10-16T15:31:33;45.53;;;29.38;;
31390;SDS011;18022;45.492;11.548;2022-10-16T15:33:59;46.10;;;27.85;;
31390;SDS011;18022;45.492;11.548;2022-10-16T15:36:30;46.72;;;28.88;;
31390;SDS011;18022;45.492;11.548;2022-10-16T15:39:02;43.53;;;28.30;;
31390;SDS011;18022;45.492;11.548;2022-10-16T15:41:28;44.75;;;29.70;;
31390;SDS011;18022;45.492;11.548;2022-10-16T15:43:54;46.15;;;26.48;;
31390;SDS011;18022;45.492;11.548;2022-10-16T15:46:21;39.88;;;27.95;;
31390;SDS011;18022;45.492;11.548;2022-10-16T15:48:48;44.50;;;29.17;;
31390;SDS011;18022;45.492;11.548;2022-10-16T15:53:42;54.92;;;30.10;;
31390;SDS011;18022;45.492;11.548;2022-10-16T15:56:09;48.20;;;30.38;;
31390;SDS011;18022;45.492;11.548;2022-10-16T15:58:36;47.08;;;28.95;;
31390;SDS011;18022;45.492;11.548;2022-10-16T16:01:02;46.90;;;28.98;;
31390;SDS011;18022;45.492;11.548;2022-10-16T16:03:29;49.47;;;30.97;;
31390;SDS011;18022;45.492;11.548;2022-10-16T16:05:55;45.53;;;30.77;;
31390;SDS011;18022;45.492;11.548;2022-10-16T16:08:23;50.42;;;30.27;;
31390;SDS011;18022;45.492;11.548;2022-10-16T16:11:02;49.97;;;30.45;;
31390;SDS011;18022;45.492;11.548;2022-10-16T16:13:29;46.85;;;30.05;;
31390;SDS011;18022;45.492;11.548;2022-10-16T16:15:55;43.10;;;28.92;;
31390;SDS011;18022;45.492;11.548;2022-10-16T16:18:21;41.22;;;29.23;;
31390;SDS011;18022;45.492;11.548;2022-10-16T16:20:48;42.30;;;28.27;;
31390;SDS011;18022;45.492;11.548;2022-10-16T16:23:15;43.00;;;27.33;;
31390;SDS011;18022;45.492;11.548;2022-10-16T16:25:41;43.47;;;26.20;;
31390;SDS011;18022;45.492;11.548;2022-10-16T16:28:07;42.30;;;27.38;;
31390;SDS011;18022;45.492;11.548;2022-10-16T16:30:35;43.22;;;27.48;;
31390;SDS011;18022;45.492;11.548;2022-10-16T16:33:01;42.42;;;27.60;;
31390;SDS011;18022;45.492;11.548;2022-10-16T16:35:27;41.47;;;26.77;;
31390;SDS011;18022;45.492;11.548;2022-10-16T16:37:53;41.65;;;27.42;;
31390;SDS011;18022;45.492;11.548;2022-10-16T16:40:18;42.08;;;27.08;;
31390;SDS011;18022;45.492;11.548;2022-10-16T16:42:46;46.30;;;26.30;;
31390;SDS011;18022;45.492;11.548;2022-10-16T16:45:13;41.97;;;27.13;;
31390;SDS011;18022;45.492;11.548;2022-10-16T16:47:39;44.78;;;28.15;;